Plentywood (PWD)
Plentywood, MT
Field Elevation: 2251
Lat: 48°47.32N  Long: 104°31.39W
CTAF/Unicom Freq: 122.8000
   
     For Weather-by-Phone, call 406-765-2149
Weather Advisories
2015-03-29   20:45 Z
Altimeter 29.97" Hg
Wind 260° @ 11 KT
Gusts 18 KT
Visibility 10 SM
Temperature 13° C (55° F)
Dewpoint -2° C (28° F)
Relative Humidity 34%
Density Altitude --
Condensation Altitude 10,000 feet
Wind and Runways
Indicated Runway = 26
Headwind = 11 kt
Crosswind = 0 kt
History
 
 
 
More Info
All DigiWx sites map
NOAA Forecast
 
Airport IQ 5010
(S59) Libby
(6S5) Ravalli County
 
about DigiWx
 
FAA Disclaimer: The data displayed is for advisory purposes only and is not to be used for flight planning or operations. For official data, please call 406-765-2149 to hear the current automated AWOS voice message.
  METAR PWD 292045Z AUTO 26011G18KT VIS 10 SM 13/M02 A2997